Hopeville, Connecticut
Current Conditions -  °F | °C
As of 2:52 AM on Monday 24 Nov 2014 (Local Time) from KIJD Reporting Station
Overcast Overcast  
Wind Chill: 40°   Ceiling: 3100
Heat Index: 40°   Visibility: 10mi
Dew Point: 32°   Wind: 0mph
Humidity: 73%   Direction: NA
Pressure: 29.98"   Gusts: NA
Location:  41.6042°N, 71.9701°W
Report Text: KIJD 240752Z AUTO 00000KT 10SM BKN031 BKN050 OVC060 04/00 A2998 RMK AO2 SLP152 T00440000
Loading
Personal Weather Stations






























Interactive Weather Map New forecast layout! Learn more

10-Day Weather Forecast

Advertisements
Track Severe Weather on mobile